createdAt,value
2023-08-14T00:01:22.737Z,99798.81
2023-08-14T00:06:26.814Z,99802.81
2023-08-14T00:11:30.894Z,99790.34
2023-08-14T00:16:34.799Z,99800.22
2023-08-14T00:21:39.086Z,99800.09
2023-08-14T00:26:42.952Z,99791.13
2023-08-14T00:31:47.692Z,99782.56
2023-08-14T00:36:51.773Z,99785.88
2023-08-14T00:41:56.420Z,99794.94
2023-08-14T00:47:00.555Z,99800.53
2023-08-14T00:52:04.767Z,99801.53
2023-08-14T00:57:08.881Z,99797.28
2023-08-14T01:02:12.971Z,99811.28
2023-08-14T01:07:17.255Z,99811.31
2023-08-14T01:12:54.478Z,99804.41
2023-08-14T01:18:02.761Z,99803.25
2023-08-14T01:23:24.162Z,99794.69
2023-08-14T01:28:29.658Z,99786.13
2023-08-14T01:33:34.724Z,99812.16
2023-08-14T01:39:03.143Z,99805.06
2023-08-14T01:44:12.416Z,99808.53
2023-08-14T01:49:19.533Z,99807.19
2023-08-14T01:54:23.566Z,99797.16
2023-08-14T01:59:46.153Z,99792.38
2023-08-14T02:04:52.262Z,99803.59
2023-08-14T02:09:58.082Z,99802.75
2023-08-14T02:15:03.298Z,99805.91
2023-08-14T02:20:10.177Z,99794.69
2023-08-14T02:25:14.173Z,99809.16
2023-08-14T02:30:18.386Z,99833.25
2023-08-14T02:35:22.636Z,99829.81
2023-08-14T02:40:26.648Z,99805.38
2023-08-14T02:45:31.871Z,99825.31
2023-08-14T02:50:35.825Z,99825.50
2023-08-14T02:55:40.087Z,99828.00
2023-08-14T03:00:44.145Z,99840.53
2023-08-14T03:05:48.389Z,99852.56
2023-08-14T03:10:52.658Z,99860.78
2023-08-14T03:15:56.947Z,99853.38
2023-08-14T03:21:01.241Z,99830.94
2023-08-14T03:26:06.831Z,99863.25
2023-08-14T03:31:11.634Z,99873.00
2023-08-14T03:36:15.675Z,99869.03
2023-08-14T03:41:21.498Z,99873.97
2023-08-14T03:46:25.501Z,99878.47
2023-08-14T03:51:29.625Z,99872.03
2023-08-14T03:56:33.534Z,99881.75
2023-08-14T04:01:39.843Z,99886.88
2023-08-14T04:06:46.260Z,99887.34
2023-08-14T04:11:50.838Z,99886.88
2023-08-14T04:16:56.179Z,99898.91
2023-08-14T04:22:00.262Z,99889.97
2023-08-14T04:27:04.303Z,99895.78
2023-08-14T04:32:49.710Z,99911.56
2023-08-14T04:37:53.790Z,99903.50
2023-08-14T04:42:58.070Z,99911.91
2023-08-14T04:48:02.356Z,99909.63
2023-08-14T04:53:08.428Z,99913.56
2023-08-14T04:58:15.541Z,99897.88
2023-08-14T05:03:19.781Z,99919.16
2023-08-14T05:08:23.882Z,99898.41
2023-08-14T05:13:28.094Z,99904.34
2023-08-14T05:18:32.302Z,99887.66
2023-08-14T05:23:36.371Z,99910.75
2023-08-14T05:28:40.656Z,99916.34
2023-08-14T05:33:44.623Z,99913.72
2023-08-14T05:38:48.760Z,99911.56
2023-08-14T05:43:52.870Z,99923.28
2023-08-14T05:48:56.983Z,99916.34
2023-08-14T05:54:01.190Z,99911.88
2023-08-14T05:59:05.349Z,99923.75
2023-08-14T06:04:09.461Z,99924.25
2023-08-14T06:09:17.918Z,99933.16
2023-08-14T06:14:22.521Z,99930.00
2023-08-14T06:19:26.651Z,99951.63
2023-08-14T06:24:31.516Z,99951.97
2023-08-14T06:29:35.469Z,99948.50
2023-08-14T06:34:39.746Z,99965.31
2023-08-14T06:39:44.275Z,99965.50
2023-08-14T06:44:48.360Z,99962.53
2023-08-14T06:49:52.710Z,99975.41
2023-08-14T06:54:56.732Z,99979.53
2023-08-14T07:00:14.027Z,99986.78
2023-08-14T07:05:18.184Z,99983.31
2023-08-14T07:10:22.358Z,99995.22
2023-08-14T07:15:28.097Z,99983.47
2023-08-14T07:20:32.457Z,99985.47
2023-08-14T07:25:36.436Z,99988.13
2023-08-14T07:30:41.676Z,100001.97
2023-08-14T07:35:45.886Z,99991.59
2023-08-14T07:40:50.099Z,99997.19
2023-08-14T07:45:54.474Z,100011.53
2023-08-14T07:50:58.590Z,99999.00
2023-08-14T07:56:05.225Z,99971.44
2023-08-14T08:01:12.760Z,99989.25
2023-08-14T08:06:16.801Z,100028.03
2023-08-14T08:11:20.959Z,100023.94
2023-08-14T08:16:25.008Z,100032.34
2023-08-14T08:21:29.952Z,100039.13
2023-08-14T08:26:33.880Z,100054.97
2023-08-14T08:31:38.155Z,100063.22
2023-08-14T08:36:42.278Z,100072.16
2023-08-14T08:41:48.473Z,100103.69
2023-08-14T08:47:05.389Z,100075.78
2023-08-14T08:52:10.236Z,100087.16
2023-08-14T08:57:14.502Z,100093.38
2023-08-14T09:02:19.138Z,100102.63
2023-08-14T09:07:23.678Z,100108.44
2023-08-14T09:12:27.976Z,100111.09
2023-08-14T09:17:32.626Z,100113.78
2023-08-14T09:22:40.342Z,100108.13
2023-08-14T09:27:45.113Z,100119.38
2023-08-14T09:32:49.520Z,100111.78
2023-08-14T09:37:53.910Z,100107.50
2023-08-14T09:43:01.910Z,100109.81
2023-08-14T09:48:06.727Z,100121.72
2023-08-14T09:53:11.170Z,100101.53
2023-08-14T09:58:15.172Z,100120.38
2023-08-14T10:03:21.238Z,100107.31
2023-08-14T10:08:25.501Z,100111.97
2023-08-14T10:13:30.441Z,100128.97
2023-08-14T10:18:40.083Z,100141.88
2023-08-14T10:23:45.200Z,100147.16
2023-08-14T10:28:49.960Z,100156.88
2023-08-14T10:33:54.964Z,100156.72
2023-08-14T10:39:10.649Z,100153.75
2023-08-14T10:44:14.897Z,100169.28
2023-08-14T10:49:19.095Z,100150.94
2023-08-14T10:54:25.405Z,100154.91
2023-08-14T10:59:30.215Z,100160.88
2023-08-14T11:04:38.557Z,100175.91
2023-08-14T11:09:48.521Z,100174.72
2023-08-14T11:14:52.951Z,100159.38
2023-08-14T11:19:57.056Z,100178.69
2023-08-14T11:25:01.250Z,100173.03
2023-08-14T11:30:08.998Z,100175.72
2023-08-14T11:40:29.505Z,100184.47
2023-08-14T11:45:34.072Z,100183.66
2023-08-14T11:50:37.967Z,100207.28
2023-08-14T11:55:42.360Z,100196.38
2023-08-14T12:00:52.473Z,100210.56
2023-08-14T12:06:05.897Z,100195.88
2023-08-14T12:11:11.294Z,100228.75
2023-08-14T12:16:19.014Z,100223.81
2023-08-14T12:21:29.513Z,100206.47
2023-08-14T12:26:45.480Z,100224.00
2023-08-14T12:31:49.606Z,100240.03
2023-08-14T12:36:53.834Z,100228.59
2023-08-14T12:41:58.343Z,100242.31
2023-08-14T12:47:02.583Z,100249.72
2023-08-14T12:52:10.109Z,100226.09
2023-08-14T12:57:17.905Z,100248.22
2023-08-14T13:02:25.530Z,100236.34
2023-08-14T13:07:30.868Z,100249.72
2023-08-14T13:12:35.193Z,100260.44
2023-08-14T13:17:39.374Z,100268.03
2023-08-14T13:22:43.696Z,100270.19
2023-08-14T13:27:48.013Z,100268.31
2023-08-14T13:32:52.060Z,100287.03
2023-08-14T13:37:56.103Z,100285.06
2023-08-14T13:43:00.241Z,100286.69
2023-08-14T13:48:04.538Z,100288.16
2023-08-14T13:53:08.726Z,100302.66
2023-08-14T13:58:13.080Z,100296.03
2023-08-14T14:03:17.117Z,100301.28
2023-08-14T14:08:23.758Z,100319.94
2023-08-14T14:13:28.038Z,100319.06
2023-08-14T14:18:32.250Z,100308.47
2023-08-14T14:23:36.171Z,100312.03
2023-08-14T14:28:40.545Z,100313.91
2023-08-14T14:33:44.517Z,100314.38
2023-08-14T14:38:48.524Z,100320.31
2023-08-14T14:43:52.777Z,100324.94
2023-08-14T14:48:56.741Z,100331.88
2023-08-14T14:54:00.790Z,100326.59
2023-08-14T14:59:04.752Z,100321.56
2023-08-14T15:04:08.912Z,100338.13
2023-08-14T15:09:13.256Z,100317.47
2023-08-14T15:14:17.571Z,100341.75
2023-08-14T15:19:22.253Z,100351.47
2023-08-14T15:24:26.314Z,100376.41
2023-08-14T15:29:30.365Z,100379.22
2023-08-14T15:34:34.561Z,100384.81
2023-08-14T15:39:39.606Z,100342.06
2023-08-14T15:44:43.706Z,100361.50
2023-08-14T15:49:47.774Z,100375.16
2023-08-14T15:54:53.894Z,100368.81
2023-08-14T15:59:58.289Z,100385.03
2023-08-14T16:05:02.574Z,100384.91
2023-08-14T16:10:08.371Z,100386.16
2023-08-14T16:15:14.919Z,100374.41
2023-08-14T16:20:18.903Z,100382.16
2023-08-14T16:25:23.062Z,100371.41
2023-08-14T16:30:27.010Z,100338.06
2023-08-14T16:35:31.276Z,100368.22
2023-08-14T16:40:41.677Z,100365.59
2023-08-14T16:45:50.445Z,100332.88
2023-08-14T16:50:55.388Z,100345.69
2023-08-14T16:55:59.504Z,100368.06
2023-08-14T17:01:03.673Z,100380.44
2023-08-14T17:06:26.711Z,100365.06
2023-08-14T17:11:49.664Z,100364.22
2023-08-14T17:16:54.258Z,100361.91
2023-08-14T17:21:58.265Z,100366.63
2023-08-14T17:27:02.446Z,100356.84
2023-08-14T17:32:06.785Z,100366.19
2023-08-14T17:37:35.415Z,100363.56
2023-08-14T17:42:40.514Z,100363.31
2023-08-14T17:47:44.654Z,100364.59
2023-08-14T17:52:48.576Z,100379.56
2023-08-14T17:57:52.660Z,100384.44
2023-08-14T18:02:56.594Z,100388.88
2023-08-14T18:08:00.850Z,100379.09
2023-08-14T18:13:05.349Z,100377.44
2023-08-14T18:18:10.071Z,100385.88
2023-08-14T18:23:14.095Z,100383.53
2023-08-14T18:28:17.970Z,100365.06
2023-08-14T18:33:22.108Z,100397.69
2023-08-14T18:38:27.013Z,100399.47
2023-08-14T18:43:31.115Z,100397.00
2023-08-14T18:48:35.311Z,100381.53
2023-08-14T18:53:39.372Z,100396.31
2023-08-14T18:58:43.801Z,100381.78
2023-08-14T19:03:47.743Z,100383.44
2023-08-14T19:08:51.848Z,100391.03
2023-08-14T19:13:55.916Z,100398.66
2023-08-14T19:19:00.237Z,100384.81
2023-08-14T19:24:04.646Z,100391.44
2023-08-14T19:29:08.706Z,100394.75
2023-08-14T19:34:12.828Z,100386.00
2023-08-14T19:39:19.100Z,100387.53
2023-08-14T19:44:32.317Z,100384.06
2023-08-14T19:49:36.312Z,100381.88
2023-08-14T19:54:40.459Z,100383.69
2023-08-14T19:59:44.476Z,100368.91
2023-08-14T20:04:50.767Z,100389.78
2023-08-14T20:09:55.143Z,100386.84
2023-08-14T20:14:59.564Z,100382.69
2023-08-14T20:20:04.187Z,100386.25
2023-08-14T20:25:08.694Z,100386.94
2023-08-14T20:30:13.588Z,100387.91
2023-08-14T20:35:17.465Z,100404.00
2023-08-14T20:40:21.672Z,100395.25
2023-08-14T20:45:25.649Z,100391.78
2023-08-14T20:50:29.936Z,100392.63
2023-08-14T20:55:35.362Z,100384.81
2023-08-14T21:00:42.390Z,100376.25
2023-08-14T21:05:47.749Z,100379.69
2023-08-14T21:10:51.810Z,100391.22
2023-08-14T21:16:00.372Z,100370.88
2023-08-14T21:21:05.698Z,100386.78
2023-08-14T21:26:09.563Z,100387.09
2023-08-14T21:31:13.871Z,100390.41
2023-08-14T21:36:17.910Z,100373.53
2023-08-14T21:41:21.953Z,100378.63
2023-08-14T21:46:26.050Z,100388.75
2023-08-14T21:51:30.323Z,100375.72
2023-08-14T21:56:34.552Z,100375.84
2023-08-14T22:01:38.658Z,100367.03
2023-08-14T22:06:42.715Z,100378.78
2023-08-14T22:11:46.625Z,100378.94
2023-08-14T22:16:52.814Z,100385.34
2023-08-14T22:21:57.141Z,100391.13
2023-08-14T22:27:03.409Z,100385.88
2023-08-14T22:32:07.450Z,100390.47
2023-08-14T22:37:11.757Z,100399.88
2023-08-14T22:42:25.124Z,100386.00
2023-08-14T22:47:29.071Z,100410.94
2023-08-14T22:52:33.367Z,100410.41
2023-08-14T22:57:37.343Z,100415.09
2023-08-14T23:02:41.623Z,100389.28
2023-08-14T23:07:45.604Z,100417.72
2023-08-14T23:12:49.712Z,100412.06
2023-08-14T23:17:53.896Z,100423.44
2023-08-14T23:22:58.052Z,100418.31
2023-08-14T23:28:02.224Z,100425.09
2023-08-14T23:33:07.744Z,100424.94
2023-08-14T23:38:11.954Z,100417.19
2023-08-14T23:43:15.842Z,100420.22
2023-08-14T23:48:20.173Z,100431.72
2023-08-14T23:53:24.659Z,100429.50
2023-08-14T23:58:28.600Z,100427.28
